Frem Nordica — OVIL2 — position and weather

sailwx.info

Track history (hours):
 
Tides and Currents Weather Stations Pressure Air Temp Water Temp Dewpoint Dewpoint Depression Visibility Wind Speed Wind Dir Waves Ship Positions

Frem Nordica

Last reported at 2016-Jun-19 04:33 UTC. Time now 2016-Jun-26 19:13 UTC.
Position N 55°33' E 015°13'.

Length 79 m; draft 3.5 m.

Type: Ship. MMSI: 220439000.

Date/timePositionNaut miles runAvg speedWind from/ knotsBaromVisibWave heightAir tempDewpointWater temp
2016-Jun-19 04:33N 55°33' E 015°13'8 8.6
2016-Jun-19 03:33N 55°29' E 014°60'9 8.7
2016-Jun-19 02:33N 55°25' E 014°46'9 8.7
2016-Jun-19 01:34N 55°19' E 014°35'9 8.7
2016-Jun-19 00:34N 55°12' E 014°25'9 8.6
2016-Jun-18 23:33N 55°04' E 014°20'9 8.6
2016-Jun-18 22:34N 54°56' E 014°17'9 8.6
2016-Jun-18 21:31N 54°47' E 014°14'9 8.5
2016-Jun-18 20:30N 54°38' E 014°13'42 8.4
2016-Jun-18 15:33N 53°57' E 014°17'3 2.7
2016-Jun-18 14:31N 53°54' E 014°16'0 0.0
2016-Jun-18 13:33N 53°54' E 014°16'0 0.0
2016-Jun-18 12:33N 53°54' E 014°16'0 0.0
2016-Jun-18 11:33N 53°54' E 014°16'0 0.0
2016-Jun-18 10:33N 53°54' E 014°16'0 0.0
2016-Jun-18 09:33N 53°54' E 014°16'0 0.0
2016-Jun-18 08:33N 53°54' E 014°16'0 0.0
2016-Jun-18 07:33N 53°54' E 014°16'0 0.0
2016-Jun-18 06:33N 53°54' E 014°16'0 0.0
2016-Jun-18 05:33N 53°54' E 014°16'0 0.0
2016-Jun-18 04:27N 53°54' E 014°16'0 0.0
2016-Jun-18 03:33N 53°54' E 014°16'0 0.0
2016-Jun-18 02:33N 53°54' E 014°16'0 0.0
2016-Jun-18 01:33N 53°54' E 014°16'0 0.0
2016-Jun-18 00:33N 53°54' E 014°16'0 0.0
2016-Jun-17 23:28N 53°54' E 014°16'0 0.0
2016-Jun-17 22:32N 53°54' E 014°16'0 0.0
2016-Jun-17 21:32N 53°54' E 014°16'0 0.0
2016-Jun-17 20:32N 53°54' E 014°16'0 0.0
2016-Jun-17 19:32N 53°54' E 014°16'0 0.0
2016-Jun-17 18:28N 53°54' E 014°16'0 0.0
2016-Jun-17 17:32N 53°54' E 014°16'4 3.9
2016-Jun-17 16:34N 53°58' E 014°16'7 7.2
2016-Jun-17 15:34N 54°04' E 014°22'9 8.6
2016-Jun-17 14:33N 54°09' E 014°34'  
2016-Jun-14 07:05N 59°10' E 023°03'21 8.2
2016-Jun-14 04:33N 59°24' E 023°33'8 8.2
2016-Jun-14 03:33N 59°28' E 023°48'25 8.2
2016-Jun-14 00:28N 59°41' E 024°30'8 8.2
2016-Jun-13 23:33N 59°44' E 024°44'24 7.9
2016-Jun-13 20:31N 59°45' E 025°32'24 7.8
2016-Jun-13 17:25N 59°38' E 026°18'7 8.1
2016-Jun-13 16:33N 59°37' E 026°32'9 8.3
2016-Jun-13 15:29N 59°36' E 026°49'11 8.3
2016-Jun-13 14:11N 59°36' E 027°11'5 7.9
2016-Jun-13 13:33N 59°34' E 027°20'8 8.1
2016-Jun-13 12:33N 59°30' E 027°33'7 7.4
2016-Jun-13 11:33N 59°25' E 027°45'0 0.2
2016-Jun-13 10:25N 59°25' E 027°44'0 0.1
2016-Jun-13 09:31N 59°25' E 027°44'0 0.1
2016-Jun-13 08:17N 59°25' E 027°44'0 0.0
2016-Jun-13 04:19N 59°25' E 027°44'0 0.1
2016-Jun-13 03:31N 59°25' E 027°44'0 0.0
2016-Jun-13 02:07N 59°25' E 027°44'0 0.2
2016-Jun-13 01:23N 59°25' E 027°44'0 0.2
2016-Jun-13 00:29N 59°25' E 027°44'0 0.1
2016-Jun-12 23:29N 59°25' E 027°44'0 0.0
2016-Jun-12 22:29N 59°25' E 027°44'0 0.0
2016-Jun-12 21:29N 59°25' E 027°44'0 0.0
2016-Jun-12 20:33N 59°25' E 027°44'0 0.1
2016-Jun-12 18:32N 59°25' E 027°44'0 0.1
2016-Jun-12 17:34N 59°25' E 027°44'0 0.0
2016-Jun-12 16:33N 59°25' E 027°44'0 0.1
2016-Jun-12 15:34N 59°25' E 027°44'0 0.2
2016-Jun-12 14:34N 59°25' E 027°45'0 0.1
2016-Jun-12 13:32N 59°25' E 027°44'0 0.2
2016-Jun-12 12:32N 59°25' E 027°45'6 6.4
2016-Jun-12 11:34N 59°31' E 027°46'3 2.7
2016-Jun-12 10:32N 59°29' E 027°45'3 3.4
2016-Jun-12 09:32N 59°32' E 027°45'2 1.7
2016-Jun-12 08:34N 59°30' E 027°46'1 1.0
2016-Jun-12 07:25N 59°29' E 027°46'2 2.7
2016-Jun-12 06:32N 59°32' E 027°46'2 0.5
2016-Jun-12 03:06N 59°30' E 027°46'1 1.1
2016-Jun-12 02:22N 59°30' E 027°47'1 0.8
2016-Jun-12 01:34N 59°30' E 027°47'3 2.8
2016-Jun-12 00:33N 59°29' E 027°43'3 3.3
2016-Jun-11 23:31N 59°30' E 027°37'3 3.5
2016-Jun-11 22:33N 59°31' E 027°30'87 7.9
2016-Jun-11 11:33N 59°45' E 024°41'25 8.1
2016-Jun-11 08:29N 59°37' E 023°53'8 7.7
2016-Jun-11 07:29N 59°35' E 023°39'8 8.0
2016-Jun-11 06:33N 59°32' E 023°25'  
Track history (hours):
 
Tides and Currents Weather Stations Pressure Air Temp Water Temp Dewpoint Dewpoint Depression Visibility Wind Speed Wind Dir Waves Ship Positions

Frem Nordica

Last reported at 2016-Jun-19 04:33 UTC. Time now 2016-Jun-26 19:13 UTC.
Position N 55°33' E 015°13'.

Length 79 m; draft 3.5 m.

Type: Ship. MMSI: 220439000.

Date/timePositionNaut miles runAvg speedWind from/ knotsBaromVisibWave heightAir tempDewpointWater temp
2016-Jun-19 04:33N 55°33' E 015°13'8 8.6
2016-Jun-19 03:33N 55°29' E 014°60'9 8.7
2016-Jun-19 02:33N 55°25' E 014°46'9 8.7
2016-Jun-19 01:34N 55°19' E 014°35'9 8.7
2016-Jun-19 00:34N 55°12' E 014°25'9 8.6
2016-Jun-18 23:33N 55°04' E 014°20'9 8.6
2016-Jun-18 22:34N 54°56' E 014°17'9 8.6
2016-Jun-18 21:31N 54°47' E 014°14'9 8.5
2016-Jun-18 20:30N 54°38' E 014°13'42 8.4
2016-Jun-18 15:33N 53°57' E 014°17'3 2.7
2016-Jun-18 14:31N 53°54' E 014°16'0 0.0
2016-Jun-18 13:33N 53°54' E 014°16'0 0.0
2016-Jun-18 12:33N 53°54' E 014°16'0 0.0
2016-Jun-18 11:33N 53°54' E 014°16'0 0.0
2016-Jun-18 10:33N 53°54' E 014°16'0 0.0
2016-Jun-18 09:33N 53°54' E 014°16'0 0.0
2016-Jun-18 08:33N 53°54' E 014°16'0 0.0
2016-Jun-18 07:33N 53°54' E 014°16'0 0.0
2016-Jun-18 06:33N 53°54' E 014°16'0 0.0
2016-Jun-18 05:33N 53°54' E 014°16'0 0.0
2016-Jun-18 04:27N 53°54' E 014°16'0 0.0
2016-Jun-18 03:33N 53°54' E 014°16'0 0.0
2016-Jun-18 02:33N 53°54' E 014°16'0 0.0
2016-Jun-18 01:33N 53°54' E 014°16'0 0.0
2016-Jun-18 00:33N 53°54' E 014°16'0 0.0
2016-Jun-17 23:28N 53°54' E 014°16'0 0.0
2016-Jun-17 22:32N 53°54' E 014°16'0 0.0
2016-Jun-17 21:32N 53°54' E 014°16'0 0.0
2016-Jun-17 20:32N 53°54' E 014°16'0 0.0
2016-Jun-17 19:32N 53°54' E 014°16'0 0.0
2016-Jun-17 18:28N 53°54' E 014°16'0 0.0
2016-Jun-17 17:32N 53°54' E 014°16'4 3.9
2016-Jun-17 16:34N 53°58' E 014°16'7 7.2
2016-Jun-17 15:34N 54°04' E 014°22'9 8.6
2016-Jun-17 14:33N 54°09' E 014°34'  
2016-Jun-14 07:05N 59°10' E 023°03'21 8.2
2016-Jun-14 04:33N 59°24' E 023°33'8 8.2
2016-Jun-14 03:33N 59°28' E 023°48'25 8.2
2016-Jun-14 00:28N 59°41' E 024°30'8 8.2
2016-Jun-13 23:33N 59°44' E 024°44'24 7.9
2016-Jun-13 20:31N 59°45' E 025°32'24 7.8
2016-Jun-13 17:25N 59°38' E 026°18'7 8.1
2016-Jun-13 16:33N 59°37' E 026°32'9 8.3
2016-Jun-13 15:29N 59°36' E 026°49'11 8.3
2016-Jun-13 14:11N 59°36' E 027°11'5 7.9
2016-Jun-13 13:33N 59°34' E 027°20'8 8.1
2016-Jun-13 12:33N 59°30' E 027°33'7 7.4
2016-Jun-13 11:33N 59°25' E 027°45'0 0.2
2016-Jun-13 10:25N 59°25' E 027°44'0 0.1
2016-Jun-13 09:31N 59°25' E 027°44'0 0.1
2016-Jun-13 08:17N 59°25' E 027°44'0 0.0
2016-Jun-13 04:19N 59°25' E 027°44'0 0.1
2016-Jun-13 03:31N 59°25' E 027°44'0 0.0
2016-Jun-13 02:07N 59°25' E 027°44'0 0.2
2016-Jun-13 01:23N 59°25' E 027°44'0 0.2
2016-Jun-13 00:29N 59°25' E 027°44'0 0.1
2016-Jun-12 23:29N 59°25' E 027°44'0 0.0
2016-Jun-12 22:29N 59°25' E 027°44'0 0.0
2016-Jun-12 21:29N 59°25' E 027°44'0 0.0
2016-Jun-12 20:33N 59°25' E 027°44'0 0.1
2016-Jun-12 18:32N 59°25' E 027°44'0 0.1
2016-Jun-12 17:34N 59°25' E 027°44'0 0.0
2016-Jun-12 16:33N 59°25' E 027°44'0 0.1
2016-Jun-12 15:34N 59°25' E 027°44'0 0.2
2016-Jun-12 14:34N 59°25' E 027°45'0 0.1
2016-Jun-12 13:32N 59°25' E 027°44'0 0.2
2016-Jun-12 12:32N 59°25' E 027°45'6 6.4
2016-Jun-12 11:34N 59°31' E 027°46'3 2.7
2016-Jun-12 10:32N 59°29' E 027°45'3 3.4
2016-Jun-12 09:32N 59°32' E 027°45'2 1.7
2016-Jun-12 08:34N 59°30' E 027°46'1 1.0
2016-Jun-12 07:25N 59°29' E 027°46'2 2.7
2016-Jun-12 06:32N 59°32' E 027°46'2 0.5
2016-Jun-12 03:06N 59°30' E 027°46'1 1.1
2016-Jun-12 02:22N 59°30' E 027°47'1 0.8
2016-Jun-12 01:34N 59°30' E 027°47'3 2.8
2016-Jun-12 00:33N 59°29' E 027°43'3 3.3
2016-Jun-11 23:31N 59°30' E 027°37'3 3.5
2016-Jun-11 22:33N 59°31' E 027°30'87 7.9
2016-Jun-11 11:33N 59°45' E 024°41'25 8.1
2016-Jun-11 08:29N 59°37' E 023°53'8 7.7
2016-Jun-11 07:29N 59°35' E 023°39'8 8.0
2016-Jun-11 06:33N 59°32' E 023°25'  

Dump ship's entire track history